createdAt,value
2022-09-17T00:01:17.300Z,20.17
2022-09-17T00:03:43.946Z,20.16
2022-09-17T00:06:10.888Z,20.05
2022-09-17T00:08:41.183Z,20.02
2022-09-17T00:11:08.484Z,20.03
2022-09-17T00:13:35.012Z,20.00
2022-09-17T00:16:01.639Z,19.98
2022-09-17T00:18:28.045Z,20.02
2022-09-17T00:20:54.418Z,20.00
2022-09-17T00:23:20.868Z,20.09
2022-09-17T00:25:47.263Z,20.13
2022-09-17T00:28:13.999Z,20.07
2022-09-17T00:30:41.002Z,20.03
2022-09-17T00:33:07.571Z,20.10
2022-09-17T00:35:33.990Z,20.13
2022-09-17T00:38:00.605Z,20.01
2022-09-17T00:40:27.084Z,20.09
2022-09-17T00:42:53.534Z,20.16
2022-09-17T00:45:20.006Z,20.10
2022-09-17T00:47:47.632Z,20.14
2022-09-17T00:50:15.200Z,20.05
2022-09-17T00:52:42.669Z,20.11
2022-09-17T00:55:14.070Z,20.07
2022-09-17T00:57:40.636Z,20.03
2022-09-17T01:00:08.504Z,19.97
2022-09-17T01:02:35.121Z,19.94
2022-09-17T01:05:01.547Z,19.95
2022-09-17T01:07:32.136Z,19.95
2022-09-17T01:10:12.094Z,19.99
2022-09-17T01:12:48.502Z,20.01
2022-09-17T01:15:33.797Z,19.96
2022-09-17T01:18:12.629Z,20.06
2022-09-17T01:20:51.169Z,20.05
2022-09-17T01:23:23.606Z,20.10
2022-09-17T01:26:09.193Z,20.03
2022-09-17T01:28:38.340Z,19.98
2022-09-17T01:31:25.023Z,20.03
2022-09-17T01:33:58.528Z,19.94
2022-09-17T01:36:31.048Z,19.93
2022-09-17T01:39:04.223Z,19.96
2022-09-17T01:41:31.118Z,20.02
2022-09-17T01:44:07.831Z,19.94
2022-09-17T01:46:36.053Z,19.96
2022-09-17T01:49:03.119Z,19.96
2022-09-17T01:51:30.197Z,19.94
2022-09-17T01:53:58.205Z,19.85
2022-09-17T01:56:26.406Z,19.89
2022-09-17T01:58:54.192Z,19.75
2022-09-17T02:01:20.617Z,19.83
2022-09-17T02:03:49.997Z,19.78
2022-09-17T02:06:17.328Z,19.81
2022-09-17T02:08:45.852Z,19.77
2022-09-17T02:11:14.370Z,19.72
2022-09-17T02:13:59.611Z,19.76
2022-09-17T02:16:27.011Z,19.79
2022-09-17T02:18:57.186Z,19.79
2022-09-17T02:21:23.500Z,19.70
2022-09-17T02:23:55.776Z,19.72
2022-09-17T02:26:22.396Z,19.58
2022-09-17T02:28:54.135Z,19.60
2022-09-17T02:31:20.615Z,19.58
2022-09-17T02:33:48.245Z,19.56
2022-09-17T02:36:14.646Z,19.60
2022-09-17T02:38:41.628Z,19.59
2022-09-17T02:41:14.149Z,19.61
2022-09-17T02:43:49.524Z,19.55
2022-09-17T02:46:34.862Z,19.59
2022-09-17T02:49:10.416Z,19.52
2022-09-17T02:51:36.986Z,19.52
2022-09-17T02:54:22.902Z,19.58
2022-09-17T02:56:57.244Z,19.58
2022-09-17T02:59:29.704Z,19.52
2022-09-17T03:02:01.242Z,19.42
2022-09-17T03:04:27.811Z,19.34
2022-09-17T03:06:54.198Z,19.32
2022-09-17T03:09:20.637Z,19.32
2022-09-17T03:11:47.070Z,19.25
2022-09-17T03:14:13.438Z,19.39
2022-09-17T03:16:39.877Z,19.41
2022-09-17T03:19:06.347Z,19.38
2022-09-17T03:21:32.723Z,19.27
2022-09-17T03:24:00.394Z,19.23
2022-09-17T03:26:27.549Z,19.17
2022-09-17T03:28:54.161Z,19.24
2022-09-17T03:31:20.595Z,19.20
2022-09-17T03:33:47.124Z,19.18
2022-09-17T03:36:13.524Z,19.15
2022-09-17T03:38:39.968Z,19.25
2022-09-17T03:41:07.275Z,19.25
2022-09-17T03:43:33.762Z,19.24
2022-09-17T03:46:00.602Z,19.22
2022-09-17T03:48:27.066Z,19.27
2022-09-17T03:50:53.489Z,19.31
2022-09-17T03:53:19.911Z,19.24
2022-09-17T03:55:46.293Z,19.22
2022-09-17T03:58:12.738Z,19.17
2022-09-17T04:00:39.340Z,19.21
2022-09-17T04:03:05.890Z,19.17
2022-09-17T04:05:32.494Z,19.17
2022-09-17T04:07:58.972Z,19.09
2022-09-17T04:10:25.665Z,19.11
2022-09-17T04:12:52.100Z,19.16
2022-09-17T04:15:18.664Z,19.18
2022-09-17T04:17:45.404Z,19.17
2022-09-17T04:20:11.799Z,19.09
2022-09-17T04:22:38.223Z,19.04
2022-09-17T04:25:04.767Z,19.06
2022-09-17T04:27:31.158Z,19.03
2022-09-17T04:29:57.719Z,19.02
2022-09-17T04:32:24.085Z,19.00
2022-09-17T04:34:50.941Z,18.97
2022-09-17T04:37:17.443Z,19.01
2022-09-17T04:39:43.867Z,18.61
2022-09-17T04:42:10.257Z,19.04
2022-09-17T04:44:36.714Z,19.07
2022-09-17T04:47:03.127Z,19.10
2022-09-17T04:49:31.057Z,19.09
2022-09-17T04:51:57.701Z,19.04
2022-09-17T04:54:24.284Z,18.97
2022-09-17T04:56:50.657Z,18.98
2022-09-17T04:59:17.113Z,18.97
2022-09-17T05:01:43.870Z,18.90
2022-09-17T05:04:10.595Z,19.01
2022-09-17T05:06:37.008Z,18.92
2022-09-17T05:09:03.425Z,18.93
2022-09-17T05:11:29.890Z,18.98
2022-09-17T05:13:56.344Z,18.94
2022-09-17T05:16:22.893Z,19.00
2022-09-17T05:18:51.631Z,19.04
2022-09-17T05:21:18.613Z,19.12
2022-09-17T05:23:45.025Z,19.10
2022-09-17T05:26:11.442Z,19.10
2022-09-17T05:28:37.832Z,19.14
2022-09-17T05:31:04.281Z,19.14
2022-09-17T05:33:30.694Z,19.05
2022-09-17T05:35:57.123Z,19.01
2022-09-17T05:38:23.494Z,18.98
2022-09-17T05:40:49.904Z,18.98
2022-09-17T05:43:16.299Z,18.95
2022-09-17T05:45:42.762Z,19.14
2022-09-17T05:48:13.088Z,19.15
2022-09-17T05:50:39.532Z,19.15
2022-09-17T05:53:06.894Z,19.22
2022-09-17T05:55:33.487Z,19.19
2022-09-17T05:57:59.863Z,19.26
2022-09-17T06:00:26.325Z,19.32
2022-09-17T06:02:56.668Z,19.30
2022-09-17T06:05:23.636Z,19.26
2022-09-17T06:07:50.016Z,19.28
2022-09-17T06:10:16.591Z,19.31
2022-09-17T06:12:43.106Z,19.33
2022-09-17T06:15:09.606Z,19.24
2022-09-17T06:17:36.056Z,19.26
2022-09-17T06:20:02.878Z,19.31
2022-09-17T06:22:29.252Z,19.34
2022-09-17T06:24:55.707Z,19.28
2022-09-17T06:27:22.106Z,19.41
2022-09-17T06:29:48.508Z,19.38
2022-09-17T06:32:16.980Z,19.41
2022-09-17T06:34:43.795Z,19.36
2022-09-17T06:37:10.209Z,19.31
2022-09-17T06:39:36.772Z,19.34
2022-09-17T06:42:03.252Z,19.36
2022-09-17T06:44:29.626Z,19.27
2022-09-17T06:46:56.512Z,19.30
2022-09-17T06:49:23.018Z,19.30
2022-09-17T06:51:49.445Z,19.31
2022-09-17T06:54:15.846Z,19.34
2022-09-17T06:56:42.287Z,19.35
2022-09-17T06:59:08.687Z,19.34
2022-09-17T07:01:35.149Z,19.43
2022-09-17T07:04:01.773Z,19.48
2022-09-17T07:06:28.172Z,19.32
2022-09-17T07:08:54.593Z,19.42
2022-09-17T07:11:21.190Z,19.47
2022-09-17T07:13:47.583Z,19.51
2022-09-17T07:16:14.055Z,19.57
2022-09-17T07:18:40.505Z,19.55
2022-09-17T07:21:06.906Z,19.60
2022-09-17T07:23:33.960Z,19.67
2022-09-17T07:26:00.991Z,19.73
2022-09-17T07:28:27.599Z,19.74
2022-09-17T07:30:54.099Z,19.73
2022-09-17T07:33:24.650Z,19.72
2022-09-17T07:36:00.760Z,19.81
2022-09-17T07:38:27.643Z,19.84
2022-09-17T07:41:00.495Z,19.35
2022-09-17T07:43:27.267Z,19.30
2022-09-17T07:45:54.030Z,19.88
2022-09-17T07:48:20.834Z,20.05
2022-09-17T07:50:47.446Z,19.68
2022-09-17T07:53:14.004Z,19.55
2022-09-17T07:55:40.422Z,19.71
2022-09-17T07:58:06.850Z,19.79
2022-09-17T08:00:33.409Z,20.06
2022-09-17T08:02:59.887Z,19.65
2022-09-17T08:05:26.443Z,19.82
2022-09-17T08:07:52.983Z,19.93
2022-09-17T08:10:21.772Z,20.06
2022-09-17T08:12:49.044Z,20.12
2022-09-17T08:15:16.042Z,20.14
2022-09-17T08:17:48.435Z,20.16
2022-09-17T08:20:15.011Z,20.10
2022-09-17T08:22:41.762Z,20.77
2022-09-17T08:25:08.443Z,20.81
2022-09-17T08:27:35.099Z,20.82
2022-09-17T08:30:01.616Z,20.80
2022-09-17T08:32:28.969Z,20.83
2022-09-17T08:34:58.176Z,20.82
2022-09-17T08:37:25.634Z,20.86
2022-09-17T08:39:52.108Z,20.90
2022-09-17T08:42:32.294Z,20.93
2022-09-17T08:45:00.861Z,20.96
2022-09-17T08:47:36.405Z,20.88
2022-09-17T08:50:03.663Z,20.84
2022-09-17T08:52:48.629Z,20.78
2022-09-17T08:55:18.355Z,20.10
2022-09-17T08:57:44.696Z,20.02
2022-09-17T09:00:13.541Z,20.64
2022-09-17T09:02:50.947Z,20.81
2022-09-17T09:05:21.836Z,20.82
2022-09-17T09:08:00.452Z,20.81
2022-09-17T09:10:28.252Z,20.65
2022-09-17T09:12:54.903Z,20.70
2022-09-17T09:15:21.575Z,20.54
2022-09-17T09:17:49.211Z,20.49
2022-09-17T09:20:34.372Z,20.39
2022-09-17T09:23:03.164Z,20.33
2022-09-17T09:25:31.370Z,20.30
2022-09-17T09:28:03.197Z,20.23
2022-09-17T09:30:41.501Z,20.39
2022-09-17T09:33:11.965Z,20.46
2022-09-17T09:35:39.499Z,20.47
2022-09-17T09:38:11.729Z,20.53
2022-09-17T09:40:41.640Z,20.61
2022-09-17T09:43:13.330Z,20.74
2022-09-17T09:45:48.524Z,20.84
2022-09-17T09:48:33.919Z,20.83
2022-09-17T09:51:06.697Z,20.87
2022-09-17T09:53:36.279Z,20.92
2022-09-17T09:56:21.564Z,20.86
2022-09-17T09:58:47.983Z,21.01
2022-09-17T10:01:15.416Z,21.11
2022-09-17T10:03:42.302Z,21.00
2022-09-17T10:06:09.803Z,21.11
2022-09-17T10:08:37.112Z,21.16
2022-09-17T10:11:09.253Z,21.06
2022-09-17T10:13:35.946Z,20.89
2022-09-17T10:16:14.289Z,20.86
2022-09-17T10:18:40.768Z,21.04
2022-09-17T10:21:08.092Z,21.09
2022-09-17T10:23:36.081Z,21.06
2022-09-17T10:26:02.482Z,20.98
2022-09-17T10:28:45.537Z,21.00
2022-09-17T10:31:12.286Z,20.99
2022-09-17T10:33:39.939Z,21.08
2022-09-17T10:36:12.451Z,21.13
2022-09-17T10:38:43.183Z,21.11
2022-09-17T10:41:16.540Z,21.05
2022-09-17T10:43:42.995Z,20.77
2022-09-17T10:46:10.646Z,20.56
2022-09-17T10:48:44.020Z,21.03
2022-09-17T10:51:10.734Z,21.14
2022-09-17T10:53:52.067Z,21.16
2022-09-17T10:56:21.056Z,21.06
2022-09-17T10:58:50.440Z,21.20
2022-09-17T11:01:22.630Z,21.21
2022-09-17T11:03:52.160Z,21.23
2022-09-17T11:06:18.560Z,21.19
2022-09-17T11:08:48.955Z,21.43
2022-09-17T11:11:41.769Z,20.93
2022-09-17T11:14:26.802Z,21.31
2022-09-17T11:17:13.429Z,21.19
2022-09-17T11:19:45.622Z,20.99
2022-09-17T11:22:16.686Z,20.82
2022-09-17T11:24:55.604Z,20.83
2022-09-17T11:27:41.072Z,20.83
2022-09-17T11:30:14.439Z,20.72
2022-09-17T11:32:43.797Z,20.54
2022-09-17T11:35:17.664Z,20.60
2022-09-17T11:37:49.218Z,20.50
2022-09-17T11:40:34.580Z,20.58
2022-09-17T11:43:19.716Z,20.61
2022-09-17T11:45:56.250Z,20.59
2022-09-17T11:48:24.071Z,20.71
2022-09-17T11:50:51.481Z,20.53
2022-09-17T11:53:38.113Z,20.51
2022-09-17T11:56:23.311Z,20.47
2022-09-17T11:59:01.506Z,20.33
2022-09-17T12:01:37.442Z,20.41
2022-09-17T12:04:17.225Z,20.48
2022-09-17T12:06:44.755Z,20.37
2022-09-17T12:09:16.115Z,20.42
2022-09-17T12:11:45.831Z,20.52
2022-09-17T12:14:25.316Z,20.48
2022-09-17T12:16:53.250Z,20.52
2022-09-17T12:19:23.989Z,20.52
2022-09-17T12:21:59.987Z,20.55
2022-09-17T12:24:26.338Z,20.56
2022-09-17T12:27:11.406Z,20.56
2022-09-17T12:30:00.301Z,20.51
2022-09-17T12:32:27.167Z,20.53
2022-09-17T12:35:12.379Z,20.38
2022-09-17T12:37:50.886Z,20.44
2022-09-17T12:40:23.477Z,20.27
2022-09-17T12:42:59.264Z,20.27
2022-09-17T12:45:50.722Z,20.34
2022-09-17T12:48:36.273Z,20.49
2022-09-17T12:51:05.688Z,20.53
2022-09-17T12:53:32.041Z,20.50
2022-09-17T12:56:16.757Z,20.52
2022-09-17T12:58:46.280Z,20.51
2022-09-17T13:01:24.487Z,20.53
2022-09-17T13:03:53.223Z,20.53
2022-09-17T13:06:25.574Z,20.44
2022-09-17T13:09:10.976Z,20.45
2022-09-17T13:11:50.427Z,20.34
2022-09-17T13:14:24.478Z,20.41
2022-09-17T13:17:07.958Z,20.27
2022-09-17T13:20:00.959Z,20.35
2022-09-17T13:22:28.059Z,20.32
2022-09-17T13:25:07.939Z,20.09
2022-09-17T13:27:38.228Z,20.28
2022-09-17T13:30:08.511Z,20.20
2022-09-17T13:32:34.913Z,20.28
2022-09-17T13:35:10.407Z,20.27
2022-09-17T13:37:54.785Z,20.27
2022-09-17T13:40:31.237Z,20.25
2022-09-17T13:42:58.147Z,20.20
2022-09-17T13:45:24.850Z,20.11
2022-09-17T13:47:51.329Z,20.08
2022-09-17T13:50:27.888Z,20.14
2022-09-17T13:52:54.674Z,20.10
2022-09-17T13:55:31.598Z,20.02
2022-09-17T13:57:58.067Z,19.96
2022-09-17T14:00:46.163Z,19.88
2022-09-17T14:03:31.135Z,19.92
2022-09-17T14:06:22.110Z,19.63
2022-09-17T14:08:56.363Z,19.14
2022-09-17T14:11:22.822Z,19.58
2022-09-17T14:13:49.284Z,19.75
2022-09-17T14:16:23.680Z,19.77
2022-09-17T14:19:03.268Z,19.82
2022-09-17T14:21:33.347Z,19.86
2022-09-17T14:24:03.831Z,19.82
2022-09-17T14:26:30.437Z,19.76
2022-09-17T14:29:30.217Z,19.83
2022-09-17T14:31:56.963Z,19.73
2022-09-17T14:34:23.578Z,19.72
2022-09-17T14:36:50.000Z,19.60
2022-09-17T14:39:20.161Z,19.68
2022-09-17T14:41:46.575Z,19.72
2022-09-17T14:44:15.451Z,19.58
2022-09-17T14:46:53.083Z,19.54
2022-09-17T14:49:20.799Z,19.44
2022-09-17T14:51:47.833Z,19.30
2022-09-17T14:54:15.196Z,19.38
2022-09-17T14:56:44.714Z,19.41
2022-09-17T14:59:15.049Z,19.27
2022-09-17T15:01:43.360Z,19.34
2022-09-17T15:04:10.548Z,19.36
2022-09-17T15:06:37.029Z,19.41
2022-09-17T15:09:03.515Z,19.37
2022-09-17T15:11:30.140Z,19.33
2022-09-17T15:13:56.698Z,19.23
2022-09-17T15:16:26.696Z,19.30
2022-09-17T15:18:57.445Z,19.29
2022-09-17T15:21:30.069Z,19.34
2022-09-17T15:24:01.320Z,19.22
2022-09-17T15:26:29.307Z,19.16
2022-09-17T15:28:55.986Z,19.11
2022-09-17T15:31:22.637Z,19.20
2022-09-17T15:33:49.109Z,19.24
2022-09-17T15:36:15.514Z,19.25
2022-09-17T15:38:42.836Z,19.15
2022-09-17T15:41:20.856Z,19.19
2022-09-17T15:43:47.611Z,19.14
2022-09-17T15:46:24.963Z,19.17
2022-09-17T15:48:51.503Z,19.14
2022-09-17T15:51:24.048Z,19.14
2022-09-17T15:53:51.266Z,18.87
2022-09-17T15:56:17.666Z,18.96
2022-09-17T15:58:46.983Z,18.98
2022-09-17T16:01:16.685Z,18.97
2022-09-17T16:03:46.342Z,18.89
2022-09-17T16:06:19.140Z,18.82
2022-09-17T16:08:47.497Z,18.82
2022-09-17T16:11:14.326Z,18.79
2022-09-17T16:13:40.854Z,18.78
2022-09-17T16:16:07.471Z,18.78
2022-09-17T16:18:33.918Z,18.73
2022-09-17T16:21:03.445Z,18.74
2022-09-17T16:23:29.852Z,18.72
2022-09-17T16:25:56.954Z,18.63
2022-09-17T16:28:23.344Z,18.63
2022-09-17T16:30:49.781Z,18.63
2022-09-17T16:33:16.681Z,18.65
2022-09-17T16:35:43.146Z,18.63
2022-09-17T16:38:09.746Z,18.63
2022-09-17T16:40:40.007Z,18.61
2022-09-17T16:43:06.535Z,18.27
2022-09-17T16:45:32.947Z,18.56
2022-09-17T16:47:59.353Z,18.59
2022-09-17T16:50:25.877Z,18.49
2022-09-17T16:52:52.409Z,18.46
2022-09-17T16:55:18.968Z,18.53
2022-09-17T16:57:45.562Z,18.45
2022-09-17T17:00:13.270Z,18.50
2022-09-17T17:02:39.688Z,18.47
2022-09-17T17:05:06.210Z,18.38
2022-09-17T17:07:32.617Z,18.40
2022-09-17T17:10:02.128Z,18.32
2022-09-17T17:12:28.555Z,18.30
2022-09-17T17:14:54.959Z,17.99
2022-09-17T17:17:21.387Z,18.26
2022-09-17T17:19:47.763Z,18.24
2022-09-17T17:22:14.443Z,18.22
2022-09-17T17:24:40.900Z,17.83
2022-09-17T17:27:08.917Z,18.21
2022-09-17T17:29:35.748Z,18.12
2022-09-17T17:32:02.978Z,18.21
2022-09-17T17:34:29.803Z,18.16
2022-09-17T17:36:56.209Z,18.10
2022-09-17T17:39:22.619Z,18.05
2022-09-17T17:41:51.754Z,17.93
2022-09-17T17:44:18.390Z,18.04
2022-09-17T17:46:44.836Z,18.05
2022-09-17T17:49:11.438Z,17.60
2022-09-17T17:51:37.911Z,17.97
2022-09-17T17:54:04.409Z,18.00
2022-09-17T17:56:30.828Z,17.99
2022-09-17T17:58:58.217Z,17.92
2022-09-17T18:01:25.628Z,17.95
2022-09-17T18:03:55.801Z,17.88
2022-09-17T18:06:22.201Z,17.84
2022-09-17T18:08:48.626Z,17.91
2022-09-17T18:11:15.071Z,17.92
2022-09-17T18:13:41.710Z,17.87
2022-09-17T18:16:09.195Z,17.70
2022-09-17T18:18:39.743Z,17.23
2022-09-17T18:21:09.414Z,17.76
2022-09-17T18:23:36.564Z,17.22
2022-09-17T18:26:03.125Z,17.90
2022-09-17T18:28:30.142Z,17.89
2022-09-17T18:30:57.035Z,18.02
2022-09-17T18:33:24.582Z,18.03
2022-09-17T18:35:51.581Z,17.94
2022-09-17T18:38:17.984Z,17.91
2022-09-17T18:40:44.538Z,17.99
2022-09-17T18:43:11.011Z,17.92
2022-09-17T18:45:37.467Z,17.98
2022-09-17T18:48:06.971Z,17.93
2022-09-17T18:50:33.582Z,17.85
2022-09-17T18:53:00.107Z,17.85
2022-09-17T18:55:26.564Z,17.82
2022-09-17T18:57:52.979Z,17.90
2022-09-17T19:00:20.492Z,17.82
2022-09-17T19:02:50.170Z,17.86
2022-09-17T19:05:16.917Z,17.81
2022-09-17T19:07:44.020Z,17.74
2022-09-17T19:10:10.496Z,17.73
2022-09-17T19:12:36.909Z,17.74
2022-09-17T19:15:03.416Z,17.77
2022-09-17T19:17:29.817Z,17.75
2022-09-17T19:19:56.200Z,17.70
2022-09-17T19:22:23.241Z,17.74
2022-09-17T19:24:49.662Z,17.72
2022-09-17T19:27:16.081Z,17.76
2022-09-17T19:29:42.572Z,17.77
2022-09-17T19:32:08.971Z,17.67
2022-09-17T19:34:35.366Z,17.73
2022-09-17T19:37:02.036Z,17.68
2022-09-17T19:39:28.511Z,17.59
2022-09-17T19:41:54.977Z,17.52
2022-09-17T19:44:21.445Z,17.66
2022-09-17T19:46:50.095Z,17.72
2022-09-17T19:49:16.599Z,17.55
2022-09-17T19:51:45.770Z,17.57
2022-09-17T19:54:12.282Z,17.56
2022-09-17T19:56:38.758Z,17.56
2022-09-17T19:59:05.234Z,17.63
2022-09-17T20:01:31.722Z,17.53
2022-09-17T20:03:58.167Z,17.56
2022-09-17T20:06:24.618Z,17.62
2022-09-17T20:08:51.880Z,17.57
2022-09-17T20:11:18.448Z,17.64
2022-09-17T20:13:44.901Z,17.68
2022-09-17T20:16:15.344Z,17.62
2022-09-17T20:18:41.966Z,17.65
2022-09-17T20:21:08.940Z,17.59
2022-09-17T20:23:35.423Z,17.64
2022-09-17T20:26:01.888Z,17.54
2022-09-17T20:28:28.328Z,17.47
2022-09-17T20:31:04.805Z,17.50
2022-09-17T20:33:31.287Z,17.57
2022-09-17T20:35:58.560Z,17.53
2022-09-17T20:41:11.713Z,17.62
2022-09-17T20:43:38.764Z,17.58
2022-09-17T20:46:05.700Z,17.57
2022-09-17T20:48:32.296Z,17.31
2022-09-17T20:51:03.329Z,17.47
2022-09-17T20:53:30.361Z,17.48
2022-09-17T20:56:15.536Z,17.56
2022-09-17T20:58:48.769Z,17.52
2022-09-17T21:01:17.739Z,17.51
2022-09-17T21:03:44.733Z,17.55
2022-09-17T21:06:17.844Z,17.54
2022-09-17T21:08:44.292Z,17.59
2022-09-17T21:11:10.760Z,17.58
2022-09-17T21:13:37.205Z,17.60
2022-09-17T21:16:03.786Z,17.61
2022-09-17T21:18:30.309Z,17.57
2022-09-17T21:20:56.729Z,17.57
2022-09-17T21:23:26.738Z,17.55
2022-09-17T21:25:53.207Z,17.48
2022-09-17T21:28:22.657Z,17.48
2022-09-17T21:30:49.047Z,17.50
2022-09-17T21:33:22.024Z,17.51
2022-09-17T21:35:49.619Z,17.23
2022-09-17T21:38:16.076Z,17.28
2022-09-17T21:40:44.136Z,17.27
2022-09-17T21:43:11.130Z,17.28
2022-09-17T21:45:37.540Z,17.26
2022-09-17T21:48:03.969Z,17.29
2022-09-17T21:50:31.289Z,17.37
2022-09-17T21:52:57.684Z,17.41
2022-09-17T21:55:24.082Z,17.50
2022-09-17T21:57:50.517Z,17.44
2022-09-17T22:00:21.316Z,17.45
2022-09-17T22:02:49.747Z,17.34
2022-09-17T22:05:16.462Z,17.34
2022-09-17T22:07:42.851Z,17.30
2022-09-17T22:10:14.228Z,17.27
2022-09-17T22:12:40.627Z,17.30
2022-09-17T22:15:07.165Z,17.21
2022-09-17T22:17:33.598Z,17.03
2022-09-17T22:19:59.994Z,17.08
2022-09-17T22:22:26.398Z,16.97
2022-09-17T22:24:52.805Z,16.98
2022-09-17T22:27:19.213Z,16.87
2022-09-17T22:29:45.612Z,16.79
2022-09-17T22:32:12.091Z,16.95
2022-09-17T22:34:38.475Z,16.82
2022-09-17T22:37:06.290Z,16.79
2022-09-17T22:39:32.710Z,16.67
2022-09-17T22:41:59.124Z,16.75
2022-09-17T22:44:25.589Z,16.54
2022-09-17T22:46:52.077Z,16.69
2022-09-17T22:49:18.591Z,16.58
2022-09-17T22:51:46.554Z,16.61
2022-09-17T22:54:13.690Z,16.56
2022-09-17T22:56:42.439Z,16.65
2022-09-17T22:59:08.832Z,16.53
2022-09-17T23:01:36.462Z,16.60
2022-09-17T23:04:03.382Z,16.42
2022-09-17T23:06:31.931Z,16.29
2022-09-17T23:08:58.461Z,16.34
2022-09-17T23:11:28.659Z,16.44
2022-09-17T23:14:00.357Z,16.43
2022-09-17T23:16:26.885Z,16.33
2022-09-17T23:18:53.326Z,16.35
2022-09-17T23:21:22.258Z,16.45
2022-09-17T23:23:49.324Z,16.42
2022-09-17T23:26:19.771Z,16.47
2022-09-17T23:28:46.415Z,16.41
2022-09-17T23:31:13.790Z,16.47
2022-09-17T23:33:40.486Z,16.43
2022-09-17T23:36:07.406Z,16.59
2022-09-17T23:38:35.298Z,16.65
2022-09-17T23:41:08.671Z,16.54
2022-09-17T23:43:35.231Z,16.34
2022-09-17T23:46:01.759Z,16.47
2022-09-17T23:48:28.247Z,16.48
2022-09-17T23:50:54.680Z,16.52
2022-09-17T23:53:21.080Z,16.41
2022-09-17T23:55:48.002Z,16.46
2022-09-17T23:58:14.452Z,16.39
